Time;durP1;ratioP1;P1;durP2;ratioP2;P2;SDS_P1;SDS_P2;PMS_P1;PMS_P2;Temp;Humidity;BMP_temperature;BMP_pressure;BME280_temperature;BME280_humidity;BME280_pressure;Samples;Min_cycle;Max_cycle;Signal;HPM_P1;HPM_P2
2024/02/03 00:00:48;;;;;;;22.27;15.57;;;;;;;11.28;68.50;100321.72;5091774;28;20032;-49
2024/02/03 00:03:14;;;;;;;17.35;14.48;;;;;;;11.28;67.98;100324.34;5092756;28;20035;-49
2024/02/03 00:05:40;;;;;;;16.33;14.40;;;;;;;11.36;68.34;100324.34;5091632;28;20547;-49
2024/02/03 00:08:06;;;;;;;22.75;14.85;;;;;;;11.43;69.08;100324.53;5092635;28;20024;-49
2024/02/03 00:10:32;;;;;;;19.27;14.52;;;;;;;11.47;68.67;100323.22;5092622;28;20020;-49
2024/02/03 00:12:58;;;;;;;17.38;14.20;;;;;;;11.58;68.90;100319.41;5092507;28;20111;-49
2024/02/03 00:15:25;;;;;;;18.52;14.77;;;;;;;11.62;67.79;100323.34;5092529;28;20447;-49
2024/02/03 00:17:51;;;;;;;28.67;21.63;;;;;;;11.66;68.26;100327.28;5092476;28;20024;-49
2024/02/03 00:20:19;;;;;;;17.80;14.25;;;;;;;11.80;68.30;100317.88;5092426;28;20021;-49
2024/02/03 00:22:49;;;;;;;20.70;17.98;;;;;;;11.89;67.74;100318.72;5092394;28;20024;-49
2024/02/03 00:25:15;;;;;;;19.88;16.20;;;;;;;11.84;67.46;100321.00;5092358;28;20024;-49
2024/02/03 00:27:41;;;;;;;18.67;14.93;;;;;;;11.82;68.11;100323.81;5092534;28;20043;-49
2024/02/03 00:30:08;;;;;;;16.23;14.40;;;;;;;11.96;68.03;100327.59;5092302;28;20028;-49
2024/02/03 00:32:34;;;;;;;18.02;16.13;;;;;;;11.97;67.28;100326.59;5092483;28;20061;-50
2024/02/03 00:35:00;;;;;;;16.63;14.55;;;;;;;11.79;67.81;100330.22;5092121;28;20024;-49
2024/02/03 00:37:25;;;;;;;19.02;16.25;;;;;;;11.71;67.72;100322.34;5091971;28;20024;-49
2024/02/03 00:39:51;;;;;;;20.00;15.82;;;;;;;11.63;68.35;100329.41;5090821;28;20405;-49
2024/02/03 00:42:18;;;;;;;16.85;15.05;;;;;;;11.69;68.84;100326.13;5092096;28;20027;-49
2024/02/03 00:44:44;;;;;;;20.75;16.80;;;;;;;11.61;68.75;100332.25;5090742;28;20046;-50
2024/02/03 00:47:10;;;;;;;17.25;15.43;;;;;;;11.55;69.18;100330.25;5091028;28;20098;-49
2024/02/03 00:49:36;;;;;;;22.02;16.35;;;;;;;11.56;69.69;100340.59;5091011;28;20127;-49
2024/02/03 00:52:02;;;;;;;17.10;14.45;;;;;;;11.59;69.15;100342.91;5092244;28;20020;-49
2024/02/03 00:54:28;;;;;;;15.57;13.85;;;;;;;11.64;69.41;100337.16;5091850;28;20055;-49
2024/02/03 00:56:54;;;;;;;22.15;16.05;;;;;;;11.66;68.97;100337.81;5091915;28;20107;-49
2024/02/03 00:59:20;;;;;;;20.35;18.20;;;;;;;11.56;68.71;100335.34;5090869;28;20443;-49
2024/02/03 01:01:46;;;;;;;25.88;16.50;;;;;;;11.53;68.88;100333.06;5091868;28;20024;-49
2024/02/03 01:04:12;;;;;;;19.58;15.43;;;;;;;11.53;69.13;100330.44;5091831;28;20406;-49
2024/02/03 01:06:37;;;;;;;20.63;16.88;;;;;;;11.55;69.31;100335.50;5090814;28;20103;-49
2024/02/03 01:09:03;;;;;;;19.05;16.10;;;;;;;11.62;69.00;100333.88;5090740;28;20032;-49
2024/02/03 01:11:29;;;;;;;17.75;15.82;;;;;;;11.52;68.44;100331.41;5091770;28;20031;-49
2024/02/03 01:13:55;;;;;;;20.15;16.83;;;;;;;11.48;68.93;100327.47;5090532;28;20032;-49
2024/02/03 01:16:24;;;;;;;18.58;16.02;;;;;;;11.53;68.50;100332.22;5091616;28;20027;-49
2024/02/03 01:18:50;;;;;;;19.67;16.45;;;;;;;11.56;68.84;100334.53;5091757;28;20505;-49
2024/02/03 01:21:22;;;;;;;18.17;15.77;;;;;;;11.55;68.32;100327.63;5090616;28;20393;-49
2024/02/03 01:23:48;;;;;;;18.70;16.70;;;;;;;11.44;67.70;100333.22;5091719;28;20032;-49
2024/02/03 01:26:15;;;;;;;21.83;17.67;;;;;;;11.25;67.83;100334.34;5090261;28;20405;-49
2024/02/03 01:28:41;;;;;;;17.17;15.38;;;;;;;11.05;68.15;100321.56;5090360;28;20027;-49
2024/02/03 01:31:08;;;;;;;17.80;15.82;;;;;;;10.99;68.84;100330.91;5090277;28;20028;-49
2024/02/03 01:33:34;;;;;;;22.67;20.38;;;;;;;10.97;68.88;100332.88;5090465;28;20030;-49
2024/02/03 01:36:01;;;;;;;25.20;18.27;;;;;;;10.97;69.59;100332.06;5090255;28;20024;-49
2024/02/03 01:38:26;;;;;;;19.20;17.00;;;;;;;11.05;69.51;100336.50;5090276;28;20032;-49
2024/02/03 01:40:53;;;;;;;17.92;15.63;;;;;;;11.07;69.47;100326.66;5090170;28;20032;-49
2024/02/03 01:43:18;;;;;;;25.17;20.73;;;;;;;11.13;69.13;100323.38;5090469;28;20111;-49
2024/02/03 01:45:44;;;;;;;20.88;17.13;;;;;;;11.18;69.08;100323.69;5091128;28;20141;-49
2024/02/03 01:48:13;;;;;;;26.88;21.45;;;;;;;11.26;68.85;100315.00;5091697;28;20498;-49
2024/02/03 01:50:44;;;;;;;30.73;24.30;;;;;;;11.07;68.64;100324.03;5095282;28;20551;-49
2024/02/03 01:53:12;;;;;;;18.55;13.95;;;;;;;10.90;68.96;100321.34;5094246;28;20024;-49
2024/02/03 01:55:38;;;;;;;21.05;17.88;;;;;;;10.98;69.76;100328.44;5094234;28;20056;-49
2024/02/03 01:58:03;;;;;;;19.38;17.38;;;;;;;10.97;69.51;100319.75;5094195;28;20071;-49
2024/02/03 02:00:30;;;;;;;17.92;15.55;;;;;;;10.98;69.30;100312.69;5095164;28;20020;-49
2024/02/03 02:02:56;;;;;;;23.92;16.58;;;;;;;11.05;69.80;100316.31;5095040;28;20051;-49
2024/02/03 02:05:24;;;;;;;18.13;16.23;;;;;;;11.05;69.24;100320.75;5095330;28;20062;-49
2024/02/03 02:07:50;;;;;;;17.60;14.15;;;;;;;10.93;69.51;100318.41;5095055;28;20021;-49
2024/02/03 02:10:16;;;;;;;17.33;14.32;;;;;;;10.88;69.25;100314.63;5095252;28;20052;-49
2024/02/03 02:12:42;;;;;;;16.67;14.50;;;;;;;10.84;69.51;100315.94;5094872;28;20092;-49
2024/02/03 02:15:09;;;;;;;31.67;26.77;;;;;;;10.85;69.45;100310.53;5093434;28;20028;-49
2024/02/03 02:17:36;;;;;;;18.83;15.68;;;;;;;10.83;69.14;100312.50;5094791;28;20023;-49
2024/02/03 02:20:10;;;;;;;17.95;14.35;;;;;;;10.84;69.15;100314.13;5094749;28;20028;-49
2024/02/03 02:22:36;;;;;;;17.08;15.05;;;;;;;10.90;69.46;100302.97;5093492;28;20024;-49
2024/02/03 02:25:06;;;;;;;18.73;16.83;;;;;;;10.85;68.86;100307.91;5076526;28;20398;-49
2024/02/03 02:27:33;;;;;;;19.60;15.27;;;;;;;10.78;68.72;100309.53;5093652;28;20370;-49
2024/02/03 02:29:58;;;;;;;19.75;17.63;;;;;;;10.75;69.07;100310.69;5093315;28;20024;-49
2024/02/03 02:32:24;;;;;;;20.20;17.88;;;;;;;10.83;68.75;100312.50;5094581;28;20020;-50
2024/02/03 02:34:50;;;;;;;25.52;22.45;;;;;;;10.91;68.77;100299.38;5094694;28;20020;-49
2024/02/03 02:37:15;;;;;;;48.30;43.20;;;;;;;11.07;69.11;100305.63;5094451;28;20034;-49
2024/02/03 02:39:41;;;;;;;28.58;25.75;;;;;;;11.24;68.71;100306.44;5093129;28;20371;-49
2024/02/03 02:42:07;;;;;;;20.83;18.60;;;;;;;11.44;67.97;100304.31;5094362;28;20030;-49
2024/02/03 02:44:33;;;;;;;24.40;21.85;;;;;;;11.50;67.33;100291.31;5094352;28;20541;-49
2024/02/03 02:46:59;;;;;;;54.85;49.10;;;;;;;11.54;66.79;100294.44;5094147;28;20442;-49
2024/02/03 02:49:26;;;;;;;27.10;23.80;;;;;;;11.50;66.82;100296.56;5094156;28;20052;-49
2024/02/03 02:51:52;;;;;;;18.05;16.00;;;;;;;11.47;66.63;100285.56;5094167;28;20020;-49
2024/02/03 02:54:18;;;;;;;18.85;16.42;;;;;;;11.45;66.61;100291.00;5094077;28;20024;-49
2024/02/03 02:56:43;;;;;;;19.83;16.15;;;;;;;11.49;66.81;100279.16;5094104;28;20066;-49
2024/02/03 02:59:10;;;;;;;19.55;15.10;;;;;;;11.37;66.63;100283.94;5093917;28;20021;-49
2024/02/03 03:01:36;;;;;;;20.73;18.25;;;;;;;11.27;66.62;100285.09;5093959;28;20055;-49
2024/02/03 03:04:01;;;;;;;50.63;45.80;;;;;;;11.17;66.69;100280.84;5094223;28;20078;-49
2024/02/03 03:06:27;;;;;;;27.20;24.42;;;;;;;11.07;66.20;100279.38;5093896;28;20020;-49
2024/02/03 03:08:53;;;;;;;21.52;18.23;;;;;;;10.83;67.08;100280.16;5092557;28;20458;-49
2024/02/03 03:11:20;;;;;;;22.20;17.20;;;;;;;10.89;67.56;100269.81;5093763;28;20077;-50
2024/02/03 03:13:46;;;;;;;17.42;15.35;;;;;;;10.95;67.34;100269.16;5093601;28;20021;-49
2024/02/03 03:16:11;;;;;;;23.33;17.75;;;;;;;10.81;67.31;100272.44;5093730;28;20024;-49
2024/02/03 03:18:40;;;;;;;20.02;17.80;;;;;;;10.60;67.89;100265.00;5093679;28;20060;-49
2024/02/03 03:21:07;;;;;;;19.80;16.92;;;;;;;10.70;68.37;100270.13;5092259;28;20042;-49
2024/02/03 03:23:33;;;;;;;30.25;16.80;;;;;;;10.82;68.24;100263.56;5093603;28;20440;-49
2024/02/03 03:25:59;;;;;;;22.92;20.27;;;;;;;10.83;68.48;100259.97;5092234;28;20569;-49
2024/02/03 03:28:25;;;;;;;22.33;18.85;;;;;;;10.82;68.53;100260.13;5093466;28;20032;-49
2024/02/03 03:30:51;;;;;;;20.08;15.75;;;;;;;10.80;68.49;100249.78;5092117;28;20111;-49
2024/02/03 03:33:17;;;;;;;20.55;15.82;;;;;;;10.75;68.32;100257.34;5093280;28;20107;-49
2024/02/03 03:35:43;;;;;;;18.45;14.57;;;;;;;10.68;67.98;100259.78;5093331;28;20020;-49
2024/02/03 03:38:11;;;;;;;19.95;15.32;;;;;;;10.66;68.62;100251.25;5093196;28;20020;-49
2024/02/03 03:40:37;;;;;;;16.55;13.75;;;;;;;10.71;69.19;100256.03;5092069;28;20068;-49
2024/02/03 03:43:06;;;;;;;17.38;13.55;;;;;;;10.81;69.49;100261.94;5093148;28;20032;-49
2024/02/03 03:45:34;;;;;;;15.23;13.60;;;;;;;10.99;69.61;100265.22;5091808;28;20517;-50
2024/02/03 03:48:00;;;;;;;15.95;12.80;;;;;;;11.10;69.12;100264.06;5093132;28;20056;-49
2024/02/03 03:50:25;;;;;;;17.67;12.95;;;;;;;11.27;69.30;100261.44;5091712;28;20071;-49
2024/02/03 03:52:51;;;;;;;16.73;13.85;;;;;;;11.50;68.86;100264.22;5091730;28;20016;-49
2024/02/03 03:55:17;;;;;;;17.27;13.38;;;;;;;11.64;67.85;100263.50;5092876;28;20024;-49
2024/02/03 03:57:43;;;;;;;15.65;13.50;;;;;;;11.69;67.67;100269.09;5074744;28;20050;-49
2024/02/03 04:00:10;;;;;;;15.75;14.05;;;;;;;11.75;67.18;100263.16;5092853;28;20103;-49
2024/02/03 04:02:36;;;;;;;17.42;13.93;;;;;;;11.67;66.67;100267.59;5092827;28;20017;-49
2024/02/03 04:05:02;;;;;;;17.30;13.57;;;;;;;11.43;66.68;100271.94;5074542;28;20035;-49
2024/02/03 04:07:28;;;;;;;20.40;17.80;;;;;;;11.31;66.92;100275.91;5091446;28;20513;-49
2024/02/03 04:09:54;;;;;;;18.55;16.70;;;;;;;11.30;67.20;100271.63;5092718;28;20024;-49
2024/02/03 04:12:19;;;;;;;16.70;13.88;;;;;;;11.31;67.15;100268.84;5090780;28;20024;-49
2024/02/03 04:14:48;;;;;;;15.60;13.80;;;;;;;11.30;67.17;100274.25;5091294;28;20024;-49
2024/02/03 04:17:14;;;;;;;15.93;13.98;;;;;;;11.36;67.50;100273.59;5092764;28;20508;-49
2024/02/03 04:19:40;;;;;;;21.60;17.73;;;;;;;11.42;67.17;100280.00;5092518;28;20024;-49
2024/02/03 04:22:08;;;;;;;16.83;14.93;;;;;;;11.28;67.28;100274.41;5091143;28;20020;-49
2024/02/03 04:24:34;;;;;;;16.67;14.80;;;;;;;11.09;67.24;100280.03;5092394;28;20205;-49
2024/02/03 04:27:00;;;;;;;17.88;15.52;;;;;;;10.84;67.39;100279.97;5091049;28;20157;-50
2024/02/03 04:29:26;;;;;;;19.42;16.05;;;;;;;10.74;68.43;100271.44;5092407;28;20114;-49
2024/02/03 04:31:51;;;;;;;24.55;21.67;;;;;;;10.83;68.75;100272.28;5092320;28;20020;-49
2024/02/03 04:34:18;;;;;;;17.48;15.50;;;;;;;10.86;68.81;100264.88;5092134;28;20031;-49
2024/02/03 04:36:44;;;;;;;18.20;16.20;;;;;;;10.82;68.84;100274.06;5092136;28;20016;-49
2024/02/03 04:39:10;;;;;;;20.15;17.33;;;;;;;10.87;69.47;100266.53;5091178;28;20040;-49
2024/02/03 04:41:36;;;;;;;20.65;17.20;;;;;;;10.96;69.36;100269.97;5092164;28;20092;-49
2024/02/03 04:44:02;;;;;;;50.05;43.40;;;;;;;11.07;69.24;100268.84;5092148;28;20031;-49
2024/02/03 04:46:27;;;;;;;30.67;27.27;;;;;;;11.05;69.31;100266.38;5091922;28;20547;-49
2024/02/03 04:48:53;;;;;;;55.67;49.45;;;;;;;10.92;69.20;100266.84;5092063;28;20551;-49
2024/02/03 04:51:19;;;;;;;49.28;44.20;;;;;;;10.92;68.97;100266.84;5107664;28;20081;-49
2024/02/03 04:53:45;;;;;;;24.33;21.70;;;;;;;10.89;69.04;100264.56;5090640;28;20027;-49
2024/02/03 04:56:11;;;;;;;19.65;17.52;;;;;;;10.83;68.92;100265.22;5090603;28;20089;-49
2024/02/03 04:58:37;;;;;;;19.52;17.42;;;;;;;10.70;68.74;100265.69;5090691;28;20051;-49
2024/02/03 05:01:04;;;;;;;18.55;16.52;;;;;;;10.56;69.41;100268.94;5091918;28;20028;-49
2024/02/03 05:03:31;;;;;;;20.38;17.50;;;;;;;10.53;69.53;100262.22;5091889;28;20016;-49
2024/02/03 05:06:04;;;;;;;21.48;17.60;;;;;;;10.59;70.44;100264.19;5090656;28;20027;-49
2024/02/03 05:08:30;;;;;;;19.77;17.05;;;;;;;10.73;70.43;100259.31;5091957;28;20494;-49
2024/02/03 05:10:56;;;;;;;20.25;18.08;;;;;;;10.84;70.13;100258.97;5091750;28;20017;-49
2024/02/03 05:13:22;;;;;;;23.23;18.77;;;;;;;10.70;69.58;100257.00;5090429;28;20028;-49
2024/02/03 05:15:48;;;;;;;19.77;15.93;;;;;;;10.52;69.95;100263.22;5090540;28;20374;-49
2024/02/03 05:18:13;;;;;;;22.52;17.02;;;;;;;10.56;70.92;100258.44;5090483;28;20490;-49
2024/02/03 05:20:40;;;;;;;21.88;17.50;;;;;;;10.85;71.28;100255.38;5091755;28;20028;-49
2024/02/03 05:23:06;;;;;;;22.40;18.23;;;;;;;11.18;70.85;100255.38;5090579;28;20466;-50
2024/02/03 05:25:31;;;;;;;20.77;16.63;;;;;;;11.45;70.65;100263.88;5094525;28;20056;-49
2024/02/03 05:27:57;;;;;;;24.33;17.80;;;;;;;11.58;69.86;100259.75;5094806;28;20493;-49
2024/02/03 05:30:23;;;;;;;22.48;18.52;;;;;;;11.65;69.86;100257.28;5095741;28;20024;-49
2024/02/03 05:32:49;;;;;;;23.75;19.15;;;;;;;11.57;68.79;100257.31;5095787;28;20117;-49
2024/02/03 05:35:15;;;;;;;22.20;19.13;;;;;;;11.36;69.06;100253.38;5095643;28;20545;-49
2024/02/03 05:37:40;;;;;;;25.13;19.45;;;;;;;11.26;69.50;100258.00;5094275;28;20030;-49
2024/02/03 05:40:07;;;;;;;21.83;18.35;;;;;;;11.15;69.40;100253.09;5094316;28;20100;-49
2024/02/03 05:42:33;;;;;;;22.27;18.27;;;;;;;11.11;69.93;100257.84;5095549;28;20034;-49
2024/02/03 05:44:59;;;;;;;21.98;19.20;;;;;;;10.98;70.02;100255.69;5093969;28;20059;-50
2024/02/03 05:47:25;;;;;;;45.15;40.38;;;;;;;11.08;70.76;100254.72;5095781;28;20024;-49
2024/02/03 05:49:54;;;;;;;24.85;19.98;;;;;;;11.24;70.20;100246.00;5095379;28;20051;-49
2024/02/03 05:52:20;;;;;;;23.73;17.55;;;;;;;10.98;68.68;100247.00;5095382;28;20075;-49
2024/02/03 05:54:47;;;;;;;24.55;19.30;;;;;;;10.75;69.17;100254.72;5093959;28;20035;-49
2024/02/03 05:57:13;;;;;;;27.42;18.40;;;;;;;10.58;69.22;100252.06;5095222;28;20103;-49
2024/02/03 05:59:45;;;;;;;33.95;21.83;;;;;;;10.61;68.59;100244.84;5095226;28;20394;-49
2024/02/03 06:02:11;;;;;;;28.35;18.05;;;;;;;10.78;68.03;100243.88;5095088;28;20558;-49
2024/02/03 06:04:40;;;;;;;23.25;16.88;;;;;;;10.92;67.33;100247.66;5095077;28;20098;-49
2024/02/03 06:07:06;;;;;;;21.80;16.60;;;;;;;10.99;66.50;100246.84;5095061;28;20508;-49
2024/02/03 06:09:32;;;;;;;25.10;17.92;;;;;;;11.05;66.57;100255.88;5095017;28;20067;-49
2024/02/03 06:11:58;;;;;;;24.27;16.60;;;;;;;10.92;66.27;100256.34;5093629;28;20115;-49
2024/02/03 06:14:24;;;;;;;25.58;18.08;;;;;;;10.74;66.26;100253.88;5094804;28;20433;-49
2024/02/03 06:16:50;;;;;;;22.85;18.50;;;;;;;10.71;66.77;100253.41;5094806;28;20012;-49
2024/02/03 06:19:16;;;;;;;27.23;20.90;;;;;;;10.70;67.25;100254.38;5093508;28;20024;-49
2024/02/03 06:21:42;;;;;;;24.98;16.98;;;;;;;10.74;67.33;100250.44;5094795;28;20016;-49
2024/02/03 06:24:10;;;;;;;23.15;18.48;;;;;;;10.70;66.77;100249.13;5094762;28;20027;-49
2024/02/03 06:26:36;;;;;;;26.58;19.70;;;;;;;10.20;66.78;100258.63;5094705;28;20019;-49
2024/02/03 06:29:02;;;;;;;31.95;21.83;;;;;;;9.54;68.56;100262.78;5093368;28;20032;-50
2024/02/03 06:31:28;;;;;;;32.28;21.10;;;;;;;9.42;71.28;100262.22;5094679;28;20024;-49
2024/02/03 06:33:54;;;;;;;29.75;19.50;;;;;;;9.60;71.69;100265.59;5094227;28;20401;-50
2024/02/03 06:36:19;;;;;;;27.15;18.65;;;;;;;9.60;71.42;100262.97;5094333;28;20024;-49
2024/02/03 06:38:45;;;;;;;25.95;19.65;;;;;;;9.61;71.83;100261.16;5094458;28;20042;-49
2024/02/03 06:41:14;;;;;;;23.35;17.33;;;;;;;9.83;71.95;100261.63;5094436;28;20390;-49
2024/02/03 06:43:41;;;;;;;28.10;18.30;;;;;;;10.00;71.53;100258.91;5094366;28;20498;-49
2024/02/03 06:46:11;;;;;;;24.20;19.17;;;;;;;10.16;70.61;100266.03;5094152;28;20142;-49
2024/02/03 06:48:37;;;;;;;29.70;18.88;;;;;;;10.23;70.55;100268.84;5093033;28;20024;-49
2024/02/03 06:51:03;;;;;;;29.55;21.33;;;;;;;10.14;70.57;100270.63;5094281;28;20023;-49
2024/02/03 06:53:29;;;;;;;27.40;20.33;;;;;;;10.11;71.21;100270.09;5094081;28;20082;-49
2024/02/03 06:55:56;;;;;;;24.63;19.33;;;;;;;10.24;72.06;100274.91;5094176;28;20032;-49
2024/02/03 06:58:22;;;;;;;33.00;19.70;;;;;;;10.29;71.36;100275.25;5094151;28;20103;-49
2024/02/03 07:00:48;;;;;;;24.15;17.80;;;;;;;10.34;71.34;100273.00;5092752;28;20059;-49
2024/02/03 07:03:14;;;;;;;23.77;18.30;;;;;;;10.39;71.02;100284.66;5092675;28;20464;-49
2024/02/03 07:05:40;;;;;;;24.38;17.73;;;;;;;10.34;70.85;100267.75;5092664;28;20024;-49
2024/02/03 07:08:07;;;;;;;20.58;17.05;;;;;;;10.53;70.71;100275.34;5093916;28;20062;-49
2024/02/03 07:10:33;;;;;;;22.27;16.10;;;;;;;10.71;70.58;100262.09;5093943;28;20028;-49
2024/02/03 07:13:02;;;;;;;21.75;16.90;;;;;;;10.95;69.71;100269.16;5093842;28;20051;-49
2024/02/03 07:15:27;;;;;;;22.70;17.13;;;;;;;11.16;68.58;100281.81;5093780;28;20095;-49
2024/02/03 07:17:53;;;;;;;23.50;18.35;;;;;;;11.26;67.52;100286.09;5093756;28;20106;-49
2024/02/03 07:20:19;;;;;;;22.25;16.50;;;;;;;11.09;67.53;100288.72;5093672;28;20069;-49
2024/02/03 07:22:45;;;;;;;22.80;16.17;;;;;;;11.22;68.22;100290.84;5093690;28;20062;-49
2024/02/03 07:25:16;;;;;;;20.70;15.10;;;;;;;11.40;67.53;100294.13;5093545;28;20024;-49
2024/02/03 07:27:42;;;;;;;22.90;16.13;;;;;;;11.54;67.32;100290.00;5093770;28;20067;-49
2024/02/03 07:30:08;;;;;;;23.00;15.68;;;;;;;11.61;66.68;100295.41;5092132;28;20027;-48
2024/02/03 07:32:34;;;;;;;22.60;14.00;;;;;;;11.69;66.15;100291.94;5092169;28;20506;-47
2024/02/03 07:35:00;;;;;;;20.15;15.45;;;;;;;11.78;66.34;100290.94;5093316;28;20053;-47
2024/02/03 07:37:26;;;;;;;21.08;15.25;;;;;;;11.82;65.76;100296.69;5093349;28;20104;-47
2024/02/03 07:39:54;;;;;;;21.13;15.00;;;;;;;11.89;65.73;100295.03;5093268;28;20107;-47
2024/02/03 07:42:20;;;;;;;20.60;14.75;;;;;;;11.88;65.27;100299.44;5091905;28;20034;-47
2024/02/03 07:44:46;;;;;;;20.23;15.40;;;;;;;11.73;65.19;100307.22;5092870;28;20024;-47
2024/02/03 07:47:12;;;;;;;23.88;15.45;;;;;;;11.56;65.41;100308.22;5091077;28;20465;-47
2024/02/03 07:49:38;;;;;;;28.00;18.27;;;;;;;11.09;66.00;100306.28;5091798;28;20402;-47
2024/02/03 07:52:05;;;;;;;24.30;16.90;;;;;;;10.95;67.98;100305.13;5091635;28;20024;-47
2024/02/03 07:54:34;;;;;;;32.15;18.08;;;;;;;11.06;68.22;100309.22;5092868;28;20027;-46
2024/02/03 07:56:59;;;;;;;29.75;19.17;;;;;;;11.18;68.16;100300.84;5092961;28;20027;-49
2024/02/03 07:59:27;;;;;;;25.33;16.98;;;;;;;11.23;67.47;100297.75;5091631;28;20028;-49
2024/02/03 08:01:53;;;;;;;30.10;19.48;;;;;;;11.05;67.79;100299.72;5091954;28;20145;-49
2024/02/03 08:04:19;;;;;;;27.95;17.80;;;;;;;10.99;68.21;100309.88;5074590;28;20032;-49
2024/02/03 08:06:44;;;;;;;215.13;33.90;;;;;;;10.78;67.97;100309.53;5092762;28;20039;-49
2024/02/03 08:09:10;;;;;;;33.25;18.58;;;;;;;10.42;69.16;100312.38;5091517;28;20112;-49
2024/02/03 08:11:36;;;;;;;36.45;19.48;;;;;;;10.31;70.45;100317.94;5092693;28;20051;-49
2024/02/03 08:14:02;;;;;;;27.73;18.65;;;;;;;10.19;70.35;100317.34;5091251;28;20028;-49
2024/02/03 08:16:28;;;;;;;20.98;15.48;;;;;;;10.28;70.83;100312.97;5091266;28;20103;-49
2024/02/03 08:18:54;;;;;;;31.25;18.45;;;;;;;10.47;70.80;100318.00;5092580;28;20023;-49
2024/02/03 08:21:20;;;;;;;26.30;19.70;;;;;;;10.64;70.58;100312.78;5091492;28;20158;-49
2024/02/03 08:23:45;;;;;;;29.27;19.90;;;;;;;10.89;70.12;100316.28;5091195;28;20084;-49
2024/02/03 08:26:12;;;;;;;35.42;20.13;;;;;;;11.04;69.70;100308.56;5092399;28;20020;-49
2024/02/03 08:28:38;;;;;;;25.23;17.17;;;;;;;11.17;69.45;100311.56;5091033;28;20036;-49
2024/02/03 08:31:03;;;;;;;29.48;17.35;;;;;;;11.34;69.02;100305.28;5092314;28;20490;-49
2024/02/03 08:33:31;;;;;;;24.02;17.45;;;;;;;11.31;67.80;100310.06;5090903;28;20482;-49
2024/02/03 08:35:57;;;;;;;24.92;18.50;;;;;;;11.21;68.45;100304.97;5090945;28;20024;-49
2024/02/03 08:38:23;;;;;;;25.73;17.83;;;;;;;11.22;67.56;100306.59;5092243;28;20023;-49
2024/02/03 08:40:49;;;;;;;26.42;18.80;;;;;;;10.74;67.77;100310.81;5092232;28;20394;-49
2024/02/03 08:43:15;;;;;;;26.73;17.23;;;;;;;10.82;68.71;100312.66;5092172;28;20508;-49
2024/02/03 08:45:42;;;;;;;34.92;16.70;;;;;;;11.13;68.57;100315.50;5090419;28;20130;-49
2024/02/03 08:48:08;;;;;;;26.20;16.65;;;;;;;11.38;67.61;100308.41;5092096;28;20502;-49
2024/02/03 08:50:34;;;;;;;25.90;18.17;;;;;;;11.51;67.13;100315.78;5092325;28;20035;-47
2024/02/03 08:53:01;;;;;;;28.77;18.52;;;;;;;11.57;66.94;100323.84;5092028;28;20032;-47
2024/02/03 08:55:27;;;;;;;20.10;15.63;;;;;;;11.73;66.07;100325.63;5091950;28;20394;-47
2024/02/03 08:57:53;;;;;;;18.30;14.15;;;;;;;11.80;65.35;100320.53;5090569;28;20035;-47
2024/02/03 09:00:19;;;;;;;17.73;13.27;;;;;;;11.91;65.02;100324.63;5092000;28;20085;-47
2024/02/03 09:02:45;;;;;;;17.67;13.30;;;;;;;12.01;64.34;100327.06;5091978;28;20031;-47
2024/02/03 09:05:12;;;;;;;18.75;13.40;;;;;;;12.06;64.00;100330.84;5090572;28;20021;-47
2024/02/03 09:07:38;;;;;;;20.23;14.90;;;;;;;11.91;63.32;100330.72;5091907;28;20055;-47
2024/02/03 09:10:04;;;;;;;22.80;16.85;;;;;;;11.43;63.89;100336.81;5091839;28;20055;-47
2024/02/03 09:12:30;;;;;;;20.83;15.13;;;;;;;11.29;65.34;100340.94;5091874;28;20020;-47
2024/02/03 09:14:56;;;;;;;19.45;15.10;;;;;;;11.48;65.25;100337.97;5091773;28;20025;-47
2024/02/03 09:17:21;;;;;;;20.60;16.38;;;;;;;11.54;64.84;100339.94;5091762;28;20405;-47
2024/02/03 09:19:48;;;;;;;18.20;13.75;;;;;;;11.60;64.86;100336.66;5090536;28;20020;-47
2024/02/03 09:22:17;;;;;;;15.50;11.82;;;;;;;11.76;63.67;100325.28;5091698;28;20032;-47
2024/02/03 09:24:43;;;;;;;18.48;14.90;;;;;;;11.83;63.04;100327.25;5090440;28;20035;-47
2024/02/03 09:27:09;;;;;;;20.15;14.52;;;;;;;11.38;62.88;100337.34;5091659;28;20042;-47
2024/02/03 09:29:41;;;;;;;21.42;15.60;;;;;;;11.32;64.06;100330.91;5091715;28;20095;-47
2024/02/03 09:32:08;;;;;;;25.83;14.43;;;;;;;11.48;64.52;100335.34;5091574;28;20039;-47
2024/02/03 09:34:34;;;;;;;19.02;15.32;;;;;;;11.64;64.12;100342.41;5091581;28;20024;-47
2024/02/03 09:37:01;;;;;;;36.13;32.25;;;;;;;11.80;63.78;100334.50;5090269;28;20038;-47
2024/02/03 09:39:26;;;;;;;28.23;22.25;;;;;;;11.86;63.33;100326.94;5091593;28;20417;-47
2024/02/03 09:41:55;;;;;;;27.23;22.52;;;;;;;11.72;63.37;100325.81;5090244;28;20490;-47
2024/02/03 09:44:21;;;;;;;19.50;17.00;;;;;;;11.76;63.85;100324.47;5091480;28;20020;-47
2024/02/03 09:46:48;;;;;;;22.73;17.55;;;;;;;11.73;63.12;100320.38;5091337;28;20154;-47
2024/02/03 09:49:14;;;;;;;40.75;35.15;;;;;;;11.69;63.30;100316.44;5090277;28;20032;-49
2024/02/03 09:51:40;;;;;;;21.05;16.42;;;;;;;11.70;63.17;100312.00;5091442;28;20023;-49
2024/02/03 09:54:06;;;;;;;19.67;14.40;;;;;;;11.58;63.13;100312.34;5091366;28;20048;-49
2024/02/03 09:56:32;;;;;;;20.17;13.60;;;;;;;11.68;63.86;100309.53;5090111;28;20020;-49
2024/02/03 09:58:58;;;;;;;15.20;12.55;;;;;;;12.03;63.47;100310.13;5091409;28;20028;-49
2024/02/03 10:01:23;;;;;;;17.08;13.60;;;;;;;12.21;62.86;100312.53;5090070;28;20024;-49
2024/02/03 10:03:56;;;;;;;17.83;12.48;;;;;;;12.23;61.74;100304.47;5090023;28;20114;-49
2024/02/03 10:06:23;;;;;;;13.63;10.60;;;;;;;12.22;62.02;100303.66;5091576;28;20082;-49
2024/02/03 10:08:53;;;;;;;10.23;8.60;;;;;;;12.27;60.93;100298.69;5091358;28;20024;-49
2024/02/03 10:11:20;;;;;;;11.85;10.52;;;;;;;12.04;60.68;100301.25;5095145;28;20024;-49
2024/02/03 10:14:02;;;;;;;43.80;39.92;;;;;;;11.78;61.31;100297.00;5093856;28;20028;-49
2024/02/03 10:16:27;;;;;;;48.17;43.30;;;;;;;11.78;62.20;100299.63;5093574;28;20029;-49
2024/02/03 10:18:53;;;;;;;24.13;21.70;;;;;;;11.91;62.13;100298.31;5094897;28;20028;-49
2024/02/03 10:21:19;;;;;;;16.02;13.27;;;;;;;11.94;61.61;100290.09;5093495;28;20032;-49
2024/02/03 10:23:51;;;;;;;18.27;14.98;;;;;;;11.95;61.78;100287.31;5094838;28;20111;-49
2024/02/03 10:26:17;;;;;;;17.50;15.70;;;;;;;11.93;61.66;100291.91;5094769;28;20095;-49
2024/02/03 10:28:44;;;;;;;11.35;10.15;;;;;;;11.98;62.01;100294.03;5094644;28;20115;-49
2024/02/03 10:31:11;;;;;;;11.35;9.52;;;;;;;12.02;61.57;100305.03;5093338;28;20020;-49
2024/02/03 10:33:38;;;;;;;12.00;9.70;;;;;;;11.98;61.44;100302.75;5094516;28;20050;-49
2024/02/03 10:36:04;;;;;;;13.80;8.35;;;;;;;12.04;61.60;100303.06;5094531;28;20035;-49
2024/02/03 10:38:30;;;;;;;9.45;7.65;;;;;;;12.31;61.86;100297.34;5094457;28;20027;-49
2024/02/03 10:40:57;;;;;;;9.93;7.78;;;;;;;12.65;61.04;100298.81;5094481;28;20028;-49
2024/02/03 10:43:27;;;;;;;11.07;9.13;;;;;;;12.95;60.07;100304.22;5094435;28;20020;-49
2024/02/03 10:46:00;;;;;;;16.10;14.32;;;;;;;12.93;59.27;100300.94;5109820;28;20047;-49
2024/02/03 10:48:31;;;;;;;11.18;8.43;;;;;;;12.91;59.56;100298.47;5094359;28;20028;-49
2024/02/03 10:51:00;;;;;;;12.13;9.50;;;;;;;12.87;58.97;100297.19;5093140;28;20080;-48
2024/02/03 10:53:33;;;;;;;12.55;9.32;;;;;;;12.65;59.38;100290.09;5094183;28;20095;-48
2024/02/03 10:56:09;;;;;;;10.70;8.90;;;;;;;12.48;59.67;100278.84;5109942;28;20036;-49
2024/02/03 10:58:35;;;;;;;10.30;8.25;;;;;;;12.52;60.25;100278.31;5094114;28;20016;-49
2024/02/03 11:01:17;;;;;;;10.48;8.68;;;;;;;12.53;59.26;100274.69;5094020;28;20031;-49
2024/02/03 11:03:46;;;;;;;10.13;7.57;;;;;;;12.56;59.35;100263.81;5094112;28;20027;-49
2024/02/03 11:06:12;;;;;;;10.77;7.88;;;;;;;12.71;58.71;100261.22;5109649;28;20028;-49